createdAt,value
2018-11-05T00:01:27.698Z,95828.92
2018-11-05T00:03:55.767Z,95829.52
2018-11-05T00:06:23.939Z,95835.01
2018-11-05T00:08:51.922Z,95840.23
2018-11-05T00:11:20.421Z,95839.66
2018-11-05T00:13:48.375Z,95826.39
2018-11-05T00:16:16.484Z,95825.88
2018-11-05T00:18:44.431Z,95824.17
2018-11-05T00:21:12.357Z,95823.67
2018-11-05T00:23:40.478Z,95827.05
2018-11-05T00:26:08.630Z,95832.63
2018-11-05T00:28:36.671Z,95825.37
2018-11-05T00:31:05.046Z,95829.08
2018-11-05T00:33:33.901Z,95825.68
2018-11-05T00:36:02.035Z,95830.38
2018-11-05T00:38:30.570Z,95820.14
2018-11-05T00:40:58.530Z,95826.22
2018-11-05T00:43:26.503Z,95820.30
2018-11-05T00:45:56.012Z,95815.59
2018-11-05T00:48:24.267Z,95809.24
2018-11-05T00:50:52.392Z,95811.35
2018-11-05T00:53:20.393Z,95715.12
2018-11-05T00:55:48.438Z,95819.63
2018-11-05T00:58:16.469Z,95807.28
2018-11-05T01:00:44.417Z,95808.41
2018-11-05T01:03:12.335Z,95801.03
2018-11-05T01:05:40.344Z,95801.57
2018-11-05T01:08:08.334Z,95801.08
2018-11-05T01:10:36.252Z,95800.97
2018-11-05T01:13:04.202Z,95801.93
2018-11-05T01:15:32.338Z,95799.89
2018-11-05T01:18:00.626Z,95796.84
2018-11-05T01:20:28.525Z,95799.20
2018-11-05T01:22:56.465Z,95799.89
2018-11-05T01:25:24.388Z,95795.55
2018-11-05T01:27:52.454Z,95791.34
2018-11-05T01:30:20.410Z,95786.90
2018-11-05T01:32:48.382Z,95779.76
2018-11-05T01:35:16.346Z,95780.06
2018-11-05T01:37:44.259Z,95793.67
2018-11-05T01:40:13.643Z,95785.95
2018-11-05T01:42:41.685Z,95792.33
2018-11-05T01:45:11.066Z,95792.80
2018-11-05T01:47:39.250Z,95782.60
2018-11-05T01:50:08.879Z,95780.97
2018-11-05T01:52:36.890Z,95784.41
2018-11-05T01:55:05.793Z,95787.02
2018-11-05T01:57:33.875Z,95784.98
2018-11-05T02:00:01.869Z,95773.20
2018-11-05T02:02:30.063Z,95767.77
2018-11-05T02:04:58.822Z,95768.80
2018-11-05T02:07:26.923Z,95768.34
2018-11-05T02:09:54.897Z,95768.95
2018-11-05T02:12:22.939Z,95765.17
2018-11-05T02:14:51.009Z,95770.19
2018-11-05T02:17:18.918Z,95765.75
2018-11-05T02:19:47.045Z,95758.77
2018-11-05T02:22:15.042Z,95766.83
2018-11-05T02:24:43.238Z,95755.63
2018-11-05T02:27:11.301Z,95765.82
2018-11-05T02:29:39.168Z,95764.09
2018-11-05T02:32:07.200Z,95766.00
2018-11-05T02:34:35.193Z,95770.98
2018-11-05T02:37:03.231Z,95776.38
2018-11-05T02:39:31.374Z,95764.78
2018-11-05T02:41:59.365Z,95766.41
2018-11-05T02:44:27.260Z,95761.73
2018-11-05T02:46:55.289Z,95764.92
2018-11-05T02:49:23.363Z,95759.47
2018-11-05T02:51:51.315Z,95759.55
2018-11-05T02:54:19.289Z,95754.94
2018-11-05T02:56:47.240Z,95762.19
2018-11-05T02:59:15.134Z,95767.42
2018-11-05T03:01:43.124Z,95764.08
2018-11-05T03:04:10.975Z,95770.41
2018-11-05T03:06:38.979Z,95759.66
2018-11-05T03:09:09.738Z,95756.28
2018-11-05T03:11:37.907Z,95759.14
2018-11-05T03:14:06.385Z,95765.12
2018-11-05T03:16:34.753Z,95760.36
2018-11-05T03:19:02.618Z,95763.47
2018-11-05T03:21:30.811Z,95762.91
2018-11-05T03:23:58.888Z,95760.25
2018-11-05T03:26:27.851Z,95766.91
2018-11-05T03:28:55.771Z,95763.81
2018-11-05T03:31:24.107Z,95764.09
2018-11-05T03:33:52.335Z,95761.64
2018-11-05T03:36:20.247Z,95758.59
2018-11-05T03:38:48.119Z,95768.58
2018-11-05T03:41:16.082Z,95762.91
2018-11-05T03:43:44.040Z,95765.97
2018-11-05T03:46:12.080Z,95764.45
2018-11-05T03:48:40.115Z,95681.44
2018-11-05T03:51:08.160Z,95778.13
2018-11-05T03:53:36.062Z,95772.09
2018-11-05T03:56:04.235Z,95771.35
2018-11-05T03:58:32.183Z,95769.52
2018-11-05T04:01:00.236Z,95777.34
2018-11-05T04:03:28.266Z,95772.84
2018-11-05T04:05:56.342Z,95772.20
2018-11-05T04:08:25.172Z,95773.39
2018-11-05T04:10:53.134Z,95767.23
2018-11-05T04:13:21.049Z,95773.88
2018-11-05T04:15:49.091Z,95784.05
2018-11-05T04:18:17.015Z,95780.38
2018-11-05T04:20:44.954Z,95780.28
2018-11-05T04:23:12.914Z,95779.31
2018-11-05T04:25:40.831Z,95782.83
2018-11-05T04:28:08.777Z,95779.34
2018-11-05T04:30:37.086Z,95783.78
2018-11-05T04:33:05.128Z,95779.12
2018-11-05T04:35:33.086Z,95785.13
2018-11-05T04:38:01.765Z,95782.45
2018-11-05T04:40:30.180Z,95773.06
2018-11-05T04:43:00.491Z,95774.58
2018-11-05T04:45:28.586Z,95776.98
2018-11-05T04:47:57.036Z,95778.09
2018-11-05T04:50:24.965Z,95775.19
2018-11-05T04:52:53.753Z,95777.06
2018-11-05T04:55:21.725Z,95775.93
2018-11-05T04:57:49.742Z,95782.38
2018-11-05T05:00:18.310Z,95778.86
2018-11-05T05:02:46.345Z,95786.55
2018-11-05T05:05:15.424Z,95775.72
2018-11-05T05:07:43.414Z,95789.16
2018-11-05T05:10:11.441Z,95781.77
2018-11-05T05:12:40.622Z,95790.33
2018-11-05T05:15:09.124Z,95785.19
2018-11-05T05:17:37.270Z,95795.80
2018-11-05T05:20:07.669Z,95791.75
2018-11-05T05:22:37.102Z,95793.10
2018-11-05T05:25:05.219Z,95789.28
2018-11-05T05:27:33.339Z,95794.86
2018-11-05T05:30:01.429Z,95800.79
2018-11-05T05:32:30.015Z,95801.16
2018-11-05T05:34:58.173Z,95804.16
2018-11-05T05:37:26.201Z,95801.71
2018-11-05T05:39:54.263Z,95793.67
2018-11-05T05:42:22.860Z,95796.45
2018-11-05T05:44:50.860Z,95809.58
2018-11-05T05:47:18.803Z,95807.83
2018-11-05T05:49:46.709Z,95806.61
2018-11-05T05:52:14.795Z,95807.63
2018-11-05T05:54:42.867Z,95813.20
2018-11-05T05:57:10.948Z,95811.45
2018-11-05T05:59:39.580Z,95817.34
2018-11-05T06:02:08.115Z,95807.55
2018-11-05T06:04:36.210Z,95818.03
2018-11-05T06:07:05.519Z,95817.44
2018-11-05T06:09:33.667Z,95817.92
2018-11-05T06:12:03.133Z,95825.31
2018-11-05T06:14:31.172Z,95828.89
2018-11-05T06:16:59.110Z,95826.38
2018-11-05T06:19:27.145Z,95824.70
2018-11-05T06:21:55.210Z,95824.27
2018-11-05T06:24:23.152Z,95836.97
2018-11-05T06:26:51.653Z,95838.31
2018-11-05T06:29:19.787Z,95844.92
2018-11-05T06:31:47.740Z,95844.40
2018-11-05T06:34:15.662Z,95848.81
2018-11-05T06:36:43.967Z,95832.45
2018-11-05T06:39:12.854Z,95843.86
2018-11-05T06:41:41.794Z,95838.45
2018-11-05T06:44:09.858Z,95837.55
2018-11-05T06:46:38.180Z,95849.36
2018-11-05T06:49:06.438Z,95841.34
2018-11-05T06:51:34.445Z,95853.09
2018-11-05T06:54:03.986Z,95841.59
2018-11-05T06:56:32.374Z,95841.59
2018-11-05T06:59:00.309Z,95837.53
2018-11-05T07:01:29.764Z,95846.83
2018-11-05T07:03:57.889Z,95838.02
2018-11-05T07:06:26.271Z,95846.81
2018-11-05T07:08:54.252Z,95838.04
2018-11-05T07:11:22.263Z,95848.12
2018-11-05T07:13:50.277Z,95848.16
2018-11-05T07:16:18.557Z,95846.28
2018-11-05T07:18:46.712Z,95839.84
2018-11-05T07:21:14.498Z,95843.70
2018-11-05T07:23:42.649Z,95843.98
2018-11-05T07:26:10.915Z,95843.17
2018-11-05T07:28:38.917Z,95845.10
2018-11-05T07:31:06.930Z,95836.69
2018-11-05T07:33:37.765Z,95844.05
2018-11-05T07:36:06.090Z,95841.95
2018-11-05T07:38:35.015Z,95849.52
2018-11-05T07:41:03.576Z,95849.91
2018-11-05T07:43:33.363Z,95844.50
2018-11-05T07:46:01.416Z,95851.42
2018-11-05T07:48:31.298Z,95846.45
2018-11-05T07:50:59.939Z,95845.69
2018-11-05T07:53:28.203Z,95848.41
2018-11-05T07:55:58.574Z,95846.89
2018-11-05T07:58:26.888Z,95845.63
2018-11-05T08:00:56.910Z,95846.20
2018-11-05T08:03:33.578Z,95852.89
2018-11-05T08:06:02.567Z,95849.67
2018-11-05T08:08:30.753Z,95852.89
2018-11-05T08:10:58.648Z,95852.02
2018-11-05T08:13:26.863Z,95852.80
2018-11-05T08:15:55.024Z,95847.55
2018-11-05T08:18:22.998Z,95855.83
2018-11-05T08:20:51.021Z,95855.37
2018-11-05T08:23:19.039Z,95850.38
2018-11-05T08:25:47.178Z,95853.90
2018-11-05T08:28:15.746Z,95851.98
2018-11-05T08:30:43.733Z,95851.16
2018-11-05T08:33:13.288Z,95843.70
2018-11-05T08:35:41.147Z,95849.84
2018-11-05T08:38:09.450Z,95838.83
2018-11-05T08:40:37.493Z,95837.48
2018-11-05T08:43:06.862Z,95847.22
2018-11-05T08:45:36.002Z,95846.64
2018-11-05T08:48:04.335Z,95845.03
2018-11-05T08:50:32.444Z,95839.90
2018-11-05T08:53:00.430Z,95839.27
2018-11-05T08:55:28.508Z,95844.03
2018-11-05T08:57:57.267Z,95835.73
2018-11-05T09:00:30.834Z,95845.48
2018-11-05T09:02:58.914Z,95837.45
2018-11-05T09:05:26.981Z,95836.59
2018-11-05T09:07:55.454Z,95836.36
2018-11-05T09:10:23.718Z,95830.50
2018-11-05T09:12:51.712Z,95833.59
2018-11-05T09:15:20.786Z,95831.33
2018-11-05T09:17:49.857Z,95818.09
2018-11-05T09:20:18.569Z,95828.41
2018-11-05T09:22:47.327Z,95821.17
2018-11-05T09:25:15.998Z,95821.47
2018-11-05T09:27:44.178Z,95819.22
2018-11-05T09:30:14.719Z,95808.95
2018-11-05T09:32:44.668Z,95815.02
2018-11-05T09:35:12.822Z,95805.89
2018-11-05T09:37:40.873Z,95812.66
2018-11-05T09:40:12.390Z,95801.08
2018-11-05T09:42:45.396Z,95799.13
2018-11-05T09:45:17.143Z,95806.28
2018-11-05T09:47:45.747Z,95801.08
2018-11-05T09:50:14.028Z,95801.30
2018-11-05T09:52:42.374Z,95790.13
2018-11-05T09:55:11.412Z,95792.84
2018-11-05T09:57:39.562Z,95796.01
2018-11-05T10:00:15.370Z,95787.70
2018-11-05T10:02:48.851Z,95789.95
2018-11-05T10:05:17.403Z,95787.78
2018-11-05T10:08:02.896Z,95780.83
2018-11-05T10:10:31.483Z,95773.02
2018-11-05T10:12:59.578Z,95766.31
2018-11-05T10:15:27.600Z,95775.45
2018-11-05T10:17:55.693Z,95766.84
2018-11-05T10:20:24.474Z,95765.60
2018-11-05T10:22:52.837Z,95765.57
2018-11-05T10:25:21.827Z,95767.44
2018-11-05T10:27:50.822Z,95661.83
2018-11-05T10:30:21.067Z,95752.60
2018-11-05T10:32:49.888Z,95744.21
2018-11-05T10:35:18.370Z,95746.57
2018-11-05T10:37:46.374Z,95740.63
2018-11-05T10:40:17.204Z,95734.28
2018-11-05T10:42:47.626Z,95737.49
2018-11-05T10:45:16.829Z,95736.23
2018-11-05T10:47:45.236Z,95739.78
2018-11-05T10:50:14.709Z,95733.05
2018-11-05T10:52:43.937Z,95722.58
2018-11-05T10:55:12.092Z,95730.11
2018-11-05T10:57:40.861Z,95723.72
2018-11-05T11:00:18.469Z,95726.34
2018-11-05T11:02:51.948Z,95721.27
2018-11-05T11:05:21.466Z,95717.99
2018-11-05T11:07:49.618Z,95708.75
2018-11-05T11:10:17.716Z,95707.81
2018-11-05T11:12:45.782Z,95705.88
2018-11-05T11:15:13.915Z,95703.36
2018-11-05T11:18:23.519Z,95702.55
2018-11-05T11:23:47.198Z,95695.30
2018-11-05T11:26:57.362Z,95692.08
2018-11-05T11:29:25.478Z,95692.77
2018-11-05T11:31:53.435Z,95688.98
2018-11-05T11:34:21.398Z,95682.91
2018-11-05T11:36:49.379Z,95686.80
2018-11-05T11:39:17.374Z,95674.11
2018-11-05T11:41:45.600Z,95668.09
2018-11-05T11:44:14.474Z,95666.75
2018-11-05T11:46:42.680Z,95667.88
2018-11-05T11:49:11.044Z,95665.81
2018-11-05T11:51:39.481Z,95663.98
2018-11-05T11:54:07.620Z,95663.62
2018-11-05T11:56:36.306Z,95652.29
2018-11-05T11:59:04.859Z,95650.75
2018-11-05T12:01:37.510Z,95657.80
2018-11-05T12:04:06.892Z,95649.55
2018-11-05T12:06:35.034Z,95649.06
2018-11-05T12:09:03.414Z,95645.42
2018-11-05T12:11:39.666Z,95640.39
2018-11-05T12:14:07.868Z,95628.69
2018-11-05T12:16:38.795Z,95626.77
2018-11-05T12:19:07.047Z,95628.13
2018-11-05T12:21:35.472Z,95618.09
2018-11-05T12:24:03.796Z,95615.49
2018-11-05T12:26:33.121Z,95614.86
2018-11-05T12:29:01.446Z,95611.12
2018-11-05T12:31:30.470Z,95607.61
2018-11-05T12:33:58.783Z,95605.13
2018-11-05T12:36:26.743Z,95600.11
2018-11-05T12:38:54.758Z,95592.66
2018-11-05T12:41:23.367Z,95591.80
2018-11-05T12:43:52.612Z,95582.07
2018-11-05T12:46:20.600Z,95582.30
2018-11-05T12:48:49.630Z,95581.08
2018-11-05T12:51:17.624Z,95578.59
2018-11-05T12:53:45.950Z,95579.70
2018-11-05T12:56:14.164Z,95565.58
2018-11-05T12:58:42.215Z,95565.58
2018-11-05T13:01:10.196Z,95566.28
2018-11-05T13:03:38.133Z,95559.09
2018-11-05T13:06:06.252Z,95564.67
2018-11-05T13:08:34.361Z,95565.33
2018-11-05T13:11:02.367Z,95563.26
2018-11-05T13:13:30.493Z,95565.87
2018-11-05T13:15:58.772Z,95561.11
2018-11-05T13:18:27.013Z,95556.78
2018-11-05T13:20:55.094Z,95558.91
2018-11-05T13:23:28.586Z,95553.44
2018-11-05T13:25:56.997Z,95546.47
2018-11-05T13:28:25.253Z,95555.25
2018-11-05T13:30:53.164Z,95547.62
2018-11-05T13:33:21.322Z,95548.25
2018-11-05T13:35:49.305Z,95548.09
2018-11-05T13:38:18.203Z,95550.39
2018-11-05T13:40:45.816Z,95539.81
2018-11-05T13:43:13.795Z,95540.95
2018-11-05T13:45:42.166Z,95541.38
2018-11-05T13:48:10.301Z,95548.20
2018-11-05T13:50:38.755Z,95551.20
2018-11-05T13:53:06.744Z,95538.36
2018-11-05T13:55:34.790Z,95549.25
2018-11-05T13:58:02.781Z,95546.75
2018-11-05T14:00:30.838Z,95543.89
2018-11-05T14:02:59.124Z,95550.35
2018-11-05T14:05:27.197Z,95542.36
2018-11-05T14:07:55.429Z,95545.89
2018-11-05T14:10:23.412Z,95459.83
2018-11-05T14:12:51.683Z,95556.48
2018-11-05T14:15:20.124Z,95552.40
2018-11-05T14:17:48.222Z,95542.21
2018-11-05T14:20:17.618Z,95545.98
2018-11-05T14:22:45.662Z,95553.19
2018-11-05T14:25:15.879Z,95546.91
2018-11-05T14:27:46.330Z,95554.91
2018-11-05T14:30:14.518Z,95558.48
2018-11-05T14:32:43.508Z,95558.94
2018-11-05T14:35:11.516Z,95556.83
2018-11-05T14:37:39.823Z,95553.53
2018-11-05T14:40:09.031Z,95561.81
2018-11-05T14:42:37.225Z,95564.31
2018-11-05T14:45:07.472Z,95556.99
2018-11-05T14:47:35.378Z,95562.73
2018-11-05T14:50:03.751Z,95574.09
2018-11-05T14:52:31.895Z,95570.80
2018-11-05T14:54:59.956Z,95568.05
2018-11-05T14:57:28.324Z,95574.13
2018-11-05T14:59:56.532Z,95580.22
2018-11-05T15:02:29.987Z,95579.89
2018-11-05T15:04:58.048Z,95581.75
2018-11-05T15:07:26.071Z,95583.81
2018-11-05T15:09:54.110Z,95589.36
2018-11-05T15:12:22.213Z,95590.11
2018-11-05T15:14:50.322Z,95587.92
2018-11-05T15:17:18.997Z,95586.95
2018-11-05T15:19:47.693Z,95591.48
2018-11-05T15:22:15.815Z,95587.63
2018-11-05T15:24:44.115Z,95599.46
2018-11-05T15:27:12.172Z,95602.22
2018-11-05T15:29:40.276Z,95605.45
2018-11-05T15:32:08.778Z,95604.90
2018-11-05T15:34:36.960Z,95607.92
2018-11-05T15:37:05.135Z,95609.26
2018-11-05T15:39:33.034Z,95615.47
2018-11-05T15:42:01.123Z,95608.73
2018-11-05T15:44:29.013Z,95618.91
2018-11-05T15:46:57.089Z,95619.94
2018-11-05T15:49:25.093Z,95616.83
2018-11-05T15:51:53.432Z,95628.94
2018-11-05T15:54:21.387Z,95631.72
2018-11-05T15:56:49.216Z,95635.44
2018-11-05T15:59:17.229Z,95632.09
2018-11-05T16:01:45.414Z,95631.58
2018-11-05T16:04:13.551Z,95632.45
2018-11-05T16:06:41.887Z,95625.83
2018-11-05T16:09:11.383Z,95632.85
2018-11-05T16:11:39.712Z,95632.80
2018-11-05T16:14:07.982Z,95635.96
2018-11-05T16:16:36.170Z,95633.59
2018-11-05T16:19:04.284Z,95641.77
2018-11-05T16:21:35.775Z,95637.81
2018-11-05T16:24:03.851Z,95636.02
2018-11-05T16:26:32.280Z,95639.84
2018-11-05T16:29:00.400Z,95645.58
2018-11-05T16:31:29.543Z,95644.66
2018-11-05T16:33:57.739Z,95648.29
2018-11-05T16:36:25.907Z,95657.33
2018-11-05T16:38:53.981Z,95650.38
2018-11-05T16:41:21.899Z,95645.80
2018-11-05T16:43:49.947Z,95654.01
2018-11-05T16:46:18.474Z,95648.25
2018-11-05T16:48:46.625Z,95648.29
2018-11-05T16:51:14.855Z,95643.92
2018-11-05T16:53:43.006Z,95637.09
2018-11-05T16:56:10.919Z,95652.45
2018-11-05T16:58:38.847Z,95653.12
2018-11-05T17:01:07.180Z,95654.90
2018-11-05T17:03:35.695Z,95648.93
2018-11-05T17:06:05.127Z,95656.40
2018-11-05T17:08:41.023Z,95655.63
2018-11-05T17:11:09.142Z,95664.96
2018-11-05T17:13:37.783Z,95659.64
2018-11-05T17:16:07.799Z,95666.50
2018-11-05T17:18:36.065Z,95662.50
2018-11-05T17:21:04.089Z,95660.48
2018-11-05T17:23:37.449Z,95669.63
2018-11-05T17:26:07.720Z,95673.05
2018-11-05T17:28:36.081Z,95674.34
2018-11-05T17:31:06.798Z,95672.78
2018-11-05T17:33:39.291Z,95677.43
2018-11-05T17:36:07.270Z,95675.03
2018-11-05T17:38:35.310Z,95679.95
2018-11-05T17:41:03.356Z,95683.33
2018-11-05T17:43:31.426Z,95688.03
2018-11-05T17:46:00.036Z,95683.39
2018-11-05T17:48:28.096Z,95678.34
2018-11-05T17:50:56.239Z,95688.95
2018-11-05T17:53:24.528Z,95686.77
2018-11-05T17:55:52.887Z,95690.58
2018-11-05T17:58:20.987Z,95688.55
2018-11-05T18:00:49.030Z,95688.52
2018-11-05T18:03:16.919Z,95689.67
2018-11-05T18:05:45.192Z,95691.00
2018-11-05T18:08:13.952Z,95688.16
2018-11-05T18:10:42.763Z,95691.52
2018-11-05T18:13:10.754Z,95692.88
2018-11-05T18:15:39.155Z,95691.41
2018-11-05T18:18:07.091Z,95690.96
2018-11-05T18:20:35.698Z,95695.48
2018-11-05T18:23:04.624Z,95700.34
2018-11-05T18:25:32.649Z,95702.29
2018-11-05T18:28:00.811Z,95701.56
2018-11-05T18:30:28.759Z,95702.55
2018-11-05T18:32:56.943Z,95707.34
2018-11-05T18:35:26.111Z,95709.84
2018-11-05T18:37:54.233Z,95707.67
2018-11-05T18:40:22.282Z,95710.45
2018-11-05T18:42:50.282Z,95719.86
2018-11-05T18:45:18.560Z,95713.31
2018-11-05T18:47:46.659Z,95715.38
2018-11-05T18:50:16.837Z,95717.26
2018-11-05T18:52:45.240Z,95721.22
2018-11-05T18:55:14.485Z,95722.36
2018-11-05T18:57:42.554Z,95721.59
2018-11-05T19:00:19.324Z,95723.44
2018-11-05T19:02:48.777Z,95727.50
2018-11-05T19:05:26.127Z,95723.44
2018-11-05T19:07:54.151Z,95736.70
2018-11-05T19:10:22.222Z,95727.01
2018-11-05T19:12:51.059Z,95728.25
2018-11-05T19:15:19.234Z,95732.55
2018-11-05T19:17:48.570Z,95739.48
2018-11-05T19:20:16.934Z,95747.36
2018-11-05T19:22:45.495Z,95747.45
2018-11-05T19:25:14.491Z,95752.16
2018-11-05T19:27:42.777Z,95762.74
2018-11-05T19:30:13.539Z,95762.90
2018-11-05T19:32:43.067Z,95758.03
2018-11-05T19:35:11.834Z,95756.76
2018-11-05T19:37:40.267Z,95768.70
2018-11-05T19:40:09.910Z,95756.94
2018-11-05T19:42:38.114Z,95760.08
2018-11-05T19:45:09.352Z,95760.31
2018-11-05T19:47:37.576Z,95755.44
2018-11-05T19:50:07.356Z,95760.52
2018-11-05T19:52:35.493Z,95756.97
2018-11-05T19:55:03.594Z,95764.75
2018-11-05T19:57:31.631Z,95767.12
2018-11-05T19:59:59.576Z,95763.17
2018-11-05T20:02:30.270Z,95758.75
2018-11-05T20:04:58.670Z,95760.72
2018-11-05T20:07:27.389Z,95755.82
2018-11-05T20:09:55.415Z,95767.13
2018-11-05T20:12:23.399Z,95768.65
2018-11-05T20:14:51.377Z,95782.73
2018-11-05T20:17:19.523Z,95771.37
2018-11-05T20:19:47.569Z,95775.98
2018-11-05T20:22:15.691Z,95773.17
2018-11-05T20:24:43.547Z,95777.83
2018-11-05T20:27:11.621Z,95773.72
2018-11-05T20:29:39.639Z,95769.34
2018-11-05T20:32:07.913Z,95773.61
2018-11-05T20:34:35.903Z,95774.55
2018-11-05T20:37:03.866Z,95762.50
2018-11-05T20:39:31.968Z,95774.20
2018-11-05T20:42:00.119Z,95768.66
2018-11-05T20:44:28.177Z,95768.81
2018-11-05T20:46:56.118Z,95765.30
2018-11-05T20:49:24.122Z,95766.66
2018-11-05T20:51:52.137Z,95762.89
2018-11-05T20:54:20.243Z,95751.21
2018-11-05T20:56:48.260Z,95767.09
2018-11-05T20:59:16.254Z,95766.69
2018-11-05T21:01:44.380Z,95761.33
2018-11-05T21:04:12.566Z,95757.88
2018-11-05T21:06:41.723Z,95759.23
2018-11-05T21:09:10.839Z,95763.55
2018-11-05T21:11:38.954Z,95762.81
2018-11-05T21:14:06.979Z,95754.33
2018-11-05T21:16:35.349Z,95751.33
2018-11-05T21:19:03.302Z,95761.78
2018-11-05T21:21:32.242Z,95755.43
2018-11-05T21:24:00.582Z,95760.30
2018-11-05T21:26:28.838Z,95758.81
2018-11-05T21:28:56.871Z,95765.05
2018-11-05T21:31:24.782Z,95752.90
2018-11-05T21:33:52.727Z,95755.84
2018-11-05T21:36:20.780Z,95754.59
2018-11-05T21:38:48.868Z,95746.81
2018-11-05T21:41:16.881Z,95755.19
2018-11-05T21:43:45.020Z,95755.27
2018-11-05T21:46:13.006Z,95753.70
2018-11-05T21:48:41.006Z,95754.27
2018-11-05T21:51:08.913Z,95759.14
2018-11-05T21:53:36.875Z,95758.77
2018-11-05T21:56:05.121Z,95765.41
2018-11-05T21:58:33.125Z,95764.09
2018-11-05T22:01:07.714Z,95763.23
2018-11-05T22:03:36.071Z,95763.19
2018-11-05T22:06:04.069Z,95758.16
2018-11-05T22:08:32.052Z,95765.89
2018-11-05T22:11:00.020Z,95769.08
2018-11-05T22:13:28.168Z,95765.20
2018-11-05T22:15:56.163Z,95765.13
2018-11-05T22:18:24.111Z,95764.48
2018-11-05T22:20:52.018Z,95756.64
2018-11-05T22:23:20.251Z,95760.75
2018-11-05T22:25:48.527Z,95761.36
2018-11-05T22:28:16.481Z,95762.83
2018-11-05T22:30:44.426Z,95761.77
2018-11-05T22:33:12.398Z,95755.39
2018-11-05T22:35:40.329Z,95762.09
2018-11-05T22:38:08.354Z,95753.88
2018-11-05T22:40:36.396Z,95754.58
2018-11-05T22:43:04.460Z,95756.94
2018-11-05T22:45:32.413Z,95755.17
2018-11-05T22:48:00.702Z,95752.05
2018-11-05T22:50:28.756Z,95755.03
2018-11-05T22:52:56.732Z,95756.45
2018-11-05T22:55:24.755Z,95760.34
2018-11-05T22:57:52.719Z,95753.31
2018-11-05T23:00:26.434Z,95753.19
2018-11-05T23:02:59.877Z,95760.75
2018-11-05T23:05:28.861Z,95761.63
2018-11-05T23:07:56.807Z,95758.61
2018-11-05T23:10:24.774Z,95756.52
2018-11-05T23:12:52.811Z,95759.08
2018-11-05T23:15:21.007Z,95760.59
2018-11-05T23:17:49.207Z,95763.19
2018-11-05T23:20:17.562Z,95755.92
2018-11-05T23:22:52.204Z,95758.98
2018-11-05T23:25:20.196Z,95756.29
2018-11-05T23:27:48.084Z,95759.76
2018-11-05T23:30:16.012Z,95762.42
2018-11-05T23:32:44.058Z,95770.66
2018-11-05T23:35:12.197Z,95766.50
2018-11-05T23:37:41.082Z,95774.05
2018-11-05T23:40:09.264Z,95772.99
2018-11-05T23:42:37.925Z,95773.84
2018-11-05T23:45:10.044Z,95772.85
2018-11-05T23:47:38.117Z,95767.08
2018-11-05T23:50:06.102Z,95778.27
2018-11-05T23:52:36.776Z,95777.56
2018-11-05T23:55:05.147Z,95779.55
2018-11-05T23:57:34.047Z,95776.94
